Hovedside
METAR-TAF:

METAR-TAF

Lufthavner :

Shell Mera, Ecuador

breddegrad: 01-30-19S, lengdegrad: 078-03-46W, høyde over havet: 1056 m

Gjeldene værobservasjon

Denne rapporten ble laget for 59 minutter siden, klokken 20:00 UTC
Vind 5 kt fra Øst, skiftende mellom Øst-nordøst og Sørøst
Temperatur 26°C
Luftfuktighet 70%
Trykk 1014 hPa
Sikt 10 km eller mer
Spredte skyer i en høyde av 2300 ft
Brutte skyer i en høyde av 10000 ft

METAR: SESM 122000Z 10005KT 060V140 9999 SCT023 BKN100 26/20 Q1014 RMK A2997

Tid: 15:59 (20:59 UTC)


TAF: fraværende

Værobservasjoner og værvarsel for over 4000 flyplasser (METAR- og TAF-rapporter).

Tilgjengelige stasjoner er representert av de røde og gule prikkene på kartet.

Hold musepekeren over prikken for å se navnet på stasjonen.

Klikk så for å se værobservasjoner og -varsler.

For å forandre kartet kan du klikke på den grønne knappen med svart kryss for å zoome inn, på den grønne knappen med strek for å zoome ut, eller på de grønne pilene for å se tilstøtende kart.


METAR-TAF: